メインページ
METAR-TAF:

METAR-TAF

空港 :

ヌアクショット, モーリタニア

ヌアクショット空港

緯度: 18-18-36N, 経度: 015-58-11W, 海抜: 3m

現時点の気象観測

当レポートは33分前の23:00(UTC)に作成
北/北西の風 17kt
気温 20°C
湿度 88%
気圧 1013 hPa
視程: 8000m

METAR: GQNO 232300Z 34017KT 8000 NSC 20/18 Q1013 NOSIG

時間: 23:33 (23:33 UTC)

予報

当レポートは6時間33分前の17:00(UTC)に作成
予報は23日の 18時(UTC)から 24日の 24時(UTC)まで有効
の風 14kt
視程: 7000m

TAF: GQNO 231700Z 2318/2424 36014KT 7000 NSC

4,000以上の空港の気象観測と天気予報(METAR報とTAF報)

利用可能な観測所は地図上に黄色い丸と赤い丸で示す。

丸の上にカーソルを重ねると観測所名を参照できる。

次にクリックすると気象観測と天気予報を参照できる。

マップの切り替え:黒色「×」印の緑ボタンをクリックして拡大、「-」印の緑ボタンをクリックして縮小、緑色の三角印をクリックして隣りの地図に切り替え


METAR-TAF: